createdAt,value
2019-01-15T00:00:06.079Z,2.70
2019-01-15T00:02:34.574Z,2.80
2019-01-15T00:05:03.150Z,2.70
2019-01-15T00:07:31.636Z,2.70
2019-01-15T00:10:00.089Z,2.70
2019-01-15T00:12:28.942Z,2.70
2019-01-15T00:14:57.350Z,2.70
2019-01-15T00:17:25.780Z,2.60
2019-01-15T00:19:54.226Z,2.70
2019-01-15T00:22:22.639Z,2.80
2019-01-15T00:24:51.094Z,2.80
2019-01-15T00:27:19.596Z,2.90
2019-01-15T00:29:48.025Z,2.90
2019-01-15T00:32:16.459Z,2.90
2019-01-15T00:34:44.911Z,2.90
2019-01-15T00:37:13.868Z,2.80
2019-01-15T00:39:42.311Z,2.80
2019-01-15T00:42:15.224Z,2.80
2019-01-15T00:44:40.890Z,2.80
2019-01-15T00:47:09.318Z,2.70
2019-01-15T00:49:37.769Z,2.70
2019-01-15T00:52:06.199Z,2.70
2019-01-15T00:54:34.639Z,2.60
2019-01-15T00:57:03.128Z,2.60
2019-01-15T00:59:31.580Z,2.60
2019-01-15T01:02:00.060Z,2.50
2019-01-15T01:04:28.500Z,2.50
2019-01-15T01:06:56.986Z,2.50
2019-01-15T01:09:25.414Z,2.50
2019-01-15T01:11:53.901Z,2.50
2019-01-15T01:14:22.422Z,2.60
2019-01-15T01:16:50.942Z,2.50
2019-01-15T01:19:19.420Z,2.50
2019-01-15T01:21:47.856Z,2.40
2019-01-15T01:24:16.299Z,2.50
2019-01-15T01:26:45.459Z,2.50
2019-01-15T01:29:13.895Z,2.40
2019-01-15T01:31:42.354Z,2.40
2019-01-15T01:34:10.791Z,2.50
2019-01-15T01:36:39.276Z,2.50
2019-01-15T01:39:08.167Z,2.50
2019-01-15T01:41:36.588Z,2.60
2019-01-15T01:44:05.203Z,2.50
2019-01-15T01:46:33.612Z,2.60
2019-01-15T01:49:02.030Z,2.70
2019-01-15T01:51:30.467Z,2.80
2019-01-15T01:53:58.876Z,2.70
2019-01-15T01:56:27.308Z,2.80
2019-01-15T01:58:55.778Z,2.80
2019-01-15T02:01:24.198Z,2.90
2019-01-15T02:03:52.777Z,2.90
2019-01-15T02:06:21.212Z,3.00
2019-01-15T02:08:49.638Z,3.00
2019-01-15T02:11:18.195Z,3.10
2019-01-15T02:13:47.346Z,3.10
2019-01-15T02:16:15.752Z,3.20
2019-01-15T02:18:44.182Z,3.20
2019-01-15T02:21:12.692Z,3.30
2019-01-15T02:23:41.120Z,3.30
2019-01-15T02:26:09.564Z,3.40
2019-01-15T02:28:37.998Z,3.40
2019-01-15T02:31:06.420Z,3.40
2019-01-15T02:33:34.915Z,3.40
2019-01-15T02:36:03.424Z,3.40
2019-01-15T02:38:31.840Z,3.40
2019-01-15T02:41:00.288Z,3.40
2019-01-15T02:43:28.811Z,3.50
2019-01-15T02:45:57.285Z,3.50
2019-01-15T02:48:25.781Z,3.60
2019-01-15T02:50:54.209Z,3.60
2019-01-15T02:53:22.645Z,3.60
2019-01-15T02:55:51.111Z,3.70
2019-01-15T02:58:19.504Z,3.60
2019-01-15T03:00:48.272Z,3.70
2019-01-15T03:03:16.768Z,3.60
2019-01-15T03:05:45.277Z,3.60
2019-01-15T03:08:13.798Z,3.70
2019-01-15T03:10:42.254Z,3.60
2019-01-15T03:13:10.664Z,3.70
2019-01-15T03:15:39.193Z,3.70
2019-01-15T03:18:07.677Z,3.70
2019-01-15T03:20:36.138Z,3.80
2019-01-15T03:23:04.637Z,3.80
2019-01-15T03:25:33.045Z,3.80
2019-01-15T03:28:01.520Z,3.80
2019-01-15T03:30:30.201Z,3.70
2019-01-15T03:32:58.659Z,3.80
2019-01-15T03:35:27.123Z,3.80
2019-01-15T03:37:55.539Z,3.80
2019-01-15T03:40:25.116Z,3.80
2019-01-15T03:42:53.667Z,3.80
2019-01-15T03:45:22.293Z,3.80
2019-01-15T03:47:51.826Z,3.80
2019-01-15T03:50:20.318Z,3.80
2019-01-15T03:52:48.804Z,3.80
2019-01-15T03:55:17.692Z,3.80
2019-01-15T03:57:46.168Z,3.80
2019-01-15T04:00:17.603Z,3.90
2019-01-15T04:02:47.229Z,3.90
2019-01-15T04:05:16.868Z,3.90
2019-01-15T04:07:46.248Z,4.10
2019-01-15T04:10:14.724Z,4.00
2019-01-15T04:12:43.536Z,4.00
2019-01-15T04:15:13.282Z,4.00
2019-01-15T04:17:41.802Z,4.00
2019-01-15T04:20:13.043Z,4.10
2019-01-15T04:22:41.533Z,4.10
2019-01-15T04:25:11.115Z,4.10
2019-01-15T04:27:39.549Z,4.10
2019-01-15T04:30:11.093Z,4.10
2019-01-15T04:32:39.521Z,4.00
2019-01-15T04:35:09.388Z,3.90
2019-01-15T04:37:37.888Z,3.90
2019-01-15T04:40:09.735Z,3.90
2019-01-15T04:42:38.193Z,3.90
2019-01-15T04:45:10.061Z,3.80
2019-01-15T04:47:38.590Z,3.80
2019-01-15T04:50:09.069Z,3.70
2019-01-15T04:52:38.402Z,3.80
2019-01-15T04:55:09.681Z,3.80
2019-01-15T04:57:38.101Z,3.80
2019-01-15T05:00:12.521Z,3.80
2019-01-15T05:02:41.552Z,3.80
2019-01-15T05:05:10.213Z,3.80
2019-01-15T05:07:38.641Z,3.80
2019-01-15T05:10:13.234Z,3.90
2019-01-15T05:12:41.816Z,4.00
2019-01-15T05:15:13.157Z,4.00
2019-01-15T05:17:41.674Z,4.00
2019-01-15T05:20:12.541Z,3.90
2019-01-15T05:22:41.101Z,3.90
2019-01-15T05:25:12.994Z,3.90
2019-01-15T05:27:41.413Z,3.80
2019-01-15T05:30:20.906Z,3.70
2019-01-15T05:32:49.437Z,3.70
2019-01-15T05:35:17.887Z,3.60
2019-01-15T05:37:46.539Z,3.50
2019-01-15T05:40:16.036Z,3.50
2019-01-15T05:42:44.799Z,3.50
2019-01-15T05:45:23.011Z,3.50
2019-01-15T05:47:52.885Z,3.50
2019-01-15T05:50:25.693Z,3.50
2019-01-15T05:52:54.266Z,3.40
2019-01-15T05:55:22.668Z,3.40
2019-01-15T05:57:51.886Z,3.30
2019-01-15T06:00:20.417Z,3.30
2019-01-15T06:02:48.911Z,3.40
2019-01-15T06:05:17.497Z,3.40
2019-01-15T06:07:45.979Z,3.40
2019-01-15T06:10:15.487Z,3.80
2019-01-15T06:12:43.936Z,4.00
2019-01-15T06:15:14.411Z,4.10
2019-01-15T06:17:42.842Z,4.10
2019-01-15T06:20:16.049Z,4.10
2019-01-15T06:22:44.447Z,4.20
2019-01-15T06:25:13.243Z,4.30
2019-01-15T06:27:41.722Z,4.30
2019-01-15T06:30:20.329Z,4.30
2019-01-15T06:32:48.785Z,4.40
2019-01-15T06:35:17.382Z,4.40
2019-01-15T06:37:45.933Z,4.50
2019-01-15T06:40:18.747Z,4.50
2019-01-15T06:42:47.365Z,4.60
2019-01-15T06:45:23.637Z,4.60
2019-01-15T06:47:53.774Z,4.60
2019-01-15T06:50:22.297Z,4.70
2019-01-15T06:52:52.290Z,4.70
2019-01-15T06:55:24.971Z,4.80
2019-01-15T06:57:57.919Z,4.90
2019-01-15T07:00:34.115Z,4.90
2019-01-15T07:03:06.414Z,4.90
2019-01-15T07:05:34.845Z,4.90
2019-01-15T07:08:03.346Z,4.90
2019-01-15T07:10:36.511Z,4.90
2019-01-15T07:13:08.998Z,5.00
2019-01-15T07:15:41.697Z,5.10
2019-01-15T07:18:12.203Z,5.00
2019-01-15T07:20:40.321Z,4.80
2019-01-15T07:23:11.524Z,4.60
2019-01-15T07:25:43.739Z,4.60
2019-01-15T07:28:17.308Z,4.50
2019-01-15T07:30:51.008Z,4.50
2019-01-15T07:33:24.609Z,4.60
2019-01-15T07:35:54.694Z,4.60
2019-01-15T07:38:23.169Z,4.60
2019-01-15T07:40:53.533Z,4.60
2019-01-15T07:43:26.368Z,4.60
2019-01-15T07:45:58.655Z,4.70
2019-01-15T07:48:27.248Z,4.70
2019-01-15T07:50:55.750Z,4.80
2019-01-15T07:53:27.907Z,4.80
2019-01-15T07:56:00.678Z,4.80
2019-01-15T07:58:31.284Z,4.90
2019-01-15T08:00:59.290Z,4.90
2019-01-15T08:03:29.669Z,5.00
2019-01-15T08:06:01.677Z,4.90
2019-01-15T08:08:32.784Z,5.00
2019-01-15T08:11:01.769Z,5.00
2019-01-15T08:13:30.311Z,5.00
2019-01-15T08:16:03.360Z,5.00
2019-01-15T08:18:36.111Z,5.10
2019-01-15T08:21:05.836Z,5.10
2019-01-15T08:23:34.292Z,5.10
2019-01-15T08:26:05.047Z,5.20
2019-01-15T08:28:36.819Z,5.20
2019-01-15T08:31:11.352Z,5.30
2019-01-15T08:33:44.192Z,5.30
2019-01-15T08:36:12.672Z,5.30
2019-01-15T08:38:41.175Z,5.40
2019-01-15T08:41:13.006Z,5.50
2019-01-15T08:43:47.620Z,5.50
2019-01-15T08:46:20.800Z,5.60
2019-01-15T08:48:53.731Z,5.70
2019-01-15T08:51:25.756Z,5.70
2019-01-15T08:53:52.628Z,5.70
2019-01-15T08:56:22.729Z,5.80
2019-01-15T08:58:55.198Z,5.80
2019-01-15T09:01:27.950Z,5.80
2019-01-15T09:03:56.381Z,5.80
2019-01-15T09:06:24.867Z,5.70
2019-01-15T09:08:56.220Z,5.70
2019-01-15T09:11:30.608Z,5.70
2019-01-15T09:14:03.168Z,5.70
2019-01-15T09:16:42.144Z,5.80
2019-01-15T09:19:13.762Z,5.90
2019-01-15T09:21:44.704Z,6.00
2019-01-15T09:24:13.144Z,6.10
2019-01-15T09:26:44.504Z,6.10
2019-01-15T09:29:13.752Z,6.30
2019-01-15T09:31:46.284Z,6.40
2019-01-15T09:34:16.656Z,6.60
2019-01-15T09:36:45.038Z,6.80
2019-01-15T09:39:14.302Z,6.80
2019-01-15T09:41:45.539Z,6.90
2019-01-15T09:44:14.253Z,7.00
2019-01-15T09:46:42.771Z,7.10
2019-01-15T09:49:14.488Z,7.00
2019-01-15T09:51:47.534Z,7.10
2019-01-15T09:54:15.965Z,7.10
2019-01-15T09:56:44.411Z,7.10
2019-01-15T09:59:16.579Z,7.20
2019-01-15T10:01:49.381Z,7.20
2019-01-15T10:04:24.361Z,7.30
2019-01-15T10:06:57.029Z,7.40
2019-01-15T10:09:30.495Z,7.40
2019-01-15T10:12:04.091Z,7.40
2019-01-15T10:14:29.225Z,7.40
2019-01-15T10:16:59.643Z,7.40
2019-01-15T10:19:32.064Z,7.60
2019-01-15T10:22:05.325Z,7.60
2019-01-15T10:24:35.383Z,7.50
2019-01-15T10:27:04.039Z,7.60
2019-01-15T10:29:34.151Z,7.60
2019-01-15T10:32:29.617Z,7.70
2019-01-15T10:35:00.588Z,7.70
2019-01-15T10:37:31.271Z,7.70
2019-01-15T10:40:04.672Z,7.80
2019-01-15T10:42:35.685Z,7.90
2019-01-15T10:45:11.943Z,7.90
2019-01-15T10:47:41.730Z,7.90
2019-01-15T10:50:13.179Z,7.90
2019-01-15T10:52:41.735Z,7.90
2019-01-15T10:55:12.789Z,8.00
2019-01-15T10:57:46.079Z,8.10
2019-01-15T11:00:13.272Z,8.10
2019-01-15T11:02:41.716Z,8.20
2019-01-15T11:05:13.952Z,8.30
2019-01-15T11:07:49.812Z,8.30
2019-01-15T11:10:21.988Z,8.20
2019-01-15T11:12:57.714Z,8.30
2019-01-15T11:15:31.018Z,8.30
2019-01-15T11:18:03.776Z,8.30
2019-01-15T11:20:33.522Z,8.30
2019-01-15T11:23:02.072Z,8.40
2019-01-15T11:25:32.332Z,8.50
2019-01-15T11:28:04.417Z,8.50
2019-01-15T11:30:32.819Z,8.50
2019-01-15T11:33:01.245Z,8.50
2019-01-15T11:35:32.802Z,8.50
2019-01-15T11:38:08.100Z,8.60
2019-01-15T11:40:40.948Z,8.60
2019-01-15T11:43:14.184Z,8.50
2019-01-15T11:45:43.136Z,8.50
2019-01-15T11:48:11.700Z,8.50
2019-01-15T11:50:41.703Z,8.60
2019-01-15T11:53:14.674Z,8.50
2019-01-15T11:55:44.411Z,8.40
2019-01-15T11:58:12.810Z,8.40
2019-01-15T12:00:44.479Z,8.30
2019-01-15T12:03:21.955Z,8.30
2019-01-15T12:06:10.623Z,8.30
2019-01-15T12:08:59.390Z,8.40
2019-01-15T12:11:37.734Z,8.50
2019-01-15T12:14:22.521Z,8.40
2019-01-15T12:16:55.296Z,8.40
2019-01-15T12:19:44.260Z,8.40
2019-01-15T12:22:34.605Z,8.40
2019-01-15T12:25:26.883Z,8.40
2019-01-15T12:27:57.536Z,8.30
2019-01-15T12:30:46.469Z,8.30
2019-01-15T12:33:29.242Z,8.30
2019-01-15T12:36:09.970Z,8.20
2019-01-15T12:38:57.111Z,8.20
2019-01-15T12:41:36.070Z,8.20
2019-01-15T12:44:12.621Z,8.20
2019-01-15T12:46:52.449Z,8.20
2019-01-15T12:49:22.867Z,8.30
2019-01-15T12:51:53.185Z,8.30
2019-01-15T12:54:25.149Z,8.30
2019-01-15T12:57:04.096Z,8.30
2019-01-15T12:59:50.460Z,8.30
2019-01-15T13:02:25.067Z,8.40
2019-01-15T13:04:56.654Z,8.30
2019-01-15T13:07:31.017Z,8.40
2019-01-15T13:10:18.891Z,8.40
2019-01-15T13:13:05.748Z,8.40
2019-01-15T13:15:47.475Z,8.50
2019-01-15T13:18:17.759Z,8.50
2019-01-15T13:21:02.735Z,8.50
2019-01-15T13:23:36.126Z,8.50
2019-01-15T13:26:11.706Z,8.50
2019-01-15T13:28:45.609Z,8.50
2019-01-15T13:31:19.379Z,8.60
2019-01-15T13:33:56.230Z,8.50
2019-01-15T13:36:35.568Z,8.40
2019-01-15T13:39:11.196Z,8.30
2019-01-15T13:41:44.009Z,8.20
2019-01-15T13:44:15.160Z,8.20
2019-01-15T13:46:50.201Z,8.20
2019-01-15T13:49:21.520Z,8.20
2019-01-15T13:52:12.109Z,8.20
2019-01-15T13:54:46.068Z,8.20
2019-01-15T13:57:19.103Z,8.10
2019-01-15T14:00:10.432Z,8.10
2019-01-15T14:02:55.652Z,8.10
2019-01-15T14:05:44.333Z,8.10
2019-01-15T14:08:20.144Z,8.10
2019-01-15T14:10:52.871Z,8.00
2019-01-15T14:13:29.021Z,8.00
2019-01-15T14:16:02.355Z,8.00
2019-01-15T14:18:35.807Z,8.00
2019-01-15T14:21:11.640Z,8.00
2019-01-15T14:24:02.061Z,8.00
2019-01-15T14:26:35.460Z,8.10
2019-01-15T14:29:16.470Z,8.10
2019-01-15T14:31:49.589Z,8.10
2019-01-15T14:34:22.507Z,8.10
2019-01-15T14:36:55.370Z,8.10
2019-01-15T14:39:29.396Z,8.10
2019-01-15T14:42:11.212Z,8.10
2019-01-15T14:44:48.427Z,8.10
2019-01-15T14:47:22.436Z,8.10
2019-01-15T14:49:55.340Z,8.10
2019-01-15T14:52:31.556Z,8.00
2019-01-15T14:55:20.066Z,8.00
2019-01-15T14:58:07.329Z,7.90
2019-01-15T15:00:49.388Z,7.90
2019-01-15T15:03:37.489Z,7.90
2019-01-15T15:06:11.692Z,7.80
2019-01-15T15:08:48.170Z,7.80
2019-01-15T15:11:36.403Z,7.80
2019-01-15T15:14:06.992Z,7.70
2019-01-15T15:16:45.330Z,7.80
2019-01-15T15:19:15.418Z,7.80
2019-01-15T15:21:47.894Z,7.80
2019-01-15T15:24:39.339Z,7.80
2019-01-15T15:27:14.184Z,7.80
2019-01-15T15:29:57.452Z,7.80
2019-01-15T15:32:31.504Z,7.80
2019-01-15T15:35:07.684Z,7.70
2019-01-15T15:37:43.412Z,7.70
2019-01-15T15:40:35.588Z,7.70
2019-01-15T15:43:09.500Z,7.70
2019-01-15T15:45:55.725Z,7.70
2019-01-15T15:48:31.843Z,7.70
2019-01-15T15:51:15.388Z,7.60
2019-01-15T15:53:53.956Z,7.60
2019-01-15T15:56:44.117Z,7.60
2019-01-15T15:59:29.457Z,7.50
2019-01-15T16:02:02.769Z,7.50
2019-01-15T16:04:38.741Z,7.40
2019-01-15T16:07:08.876Z,7.40
2019-01-15T16:09:41.664Z,7.30
2019-01-15T16:12:17.677Z,7.30
2019-01-15T16:14:47.768Z,7.30
2019-01-15T16:17:26.919Z,7.20
2019-01-15T16:20:02.937Z,7.20
2019-01-15T16:22:48.359Z,7.20
2019-01-15T16:25:36.196Z,7.20
2019-01-15T16:28:09.337Z,7.20
2019-01-15T16:30:39.400Z,7.20
2019-01-15T16:33:15.501Z,7.10
2019-01-15T16:35:54.385Z,7.10
2019-01-15T16:38:40.827Z,7.10
2019-01-15T16:41:10.868Z,7.10
2019-01-15T16:43:56.954Z,7.20
2019-01-15T16:46:43.364Z,7.10
2019-01-15T16:49:31.665Z,7.20
2019-01-15T16:52:13.602Z,7.20
2019-01-15T16:54:44.417Z,7.20
2019-01-15T16:57:14.456Z,7.20
2019-01-15T16:59:47.580Z,7.30
2019-01-15T17:02:17.684Z,7.20
2019-01-15T17:04:59.502Z,7.30
2019-01-15T17:07:45.572Z,7.30
2019-01-15T17:10:18.489Z,7.20
2019-01-15T17:13:04.704Z,7.30
2019-01-15T17:15:37.255Z,7.20
2019-01-15T17:18:12.723Z,7.20
2019-01-15T17:21:00.936Z,7.20
2019-01-15T17:23:36.996Z,7.20
2019-01-15T17:26:18.822Z,7.30
2019-01-15T17:28:48.916Z,7.30
2019-01-15T17:31:35.368Z,7.30
2019-01-15T17:34:14.273Z,7.40
2019-01-15T17:36:47.259Z,7.40
2019-01-15T17:39:24.022Z,7.40
2019-01-15T17:42:02.939Z,7.40
2019-01-15T17:44:49.174Z,7.40
2019-01-15T17:47:35.012Z,7.40
2019-01-15T17:50:22.336Z,7.40
2019-01-15T17:53:08.576Z,7.40
2019-01-15T17:55:50.218Z,7.40
2019-01-15T17:58:22.978Z,7.40
2019-01-15T18:01:08.213Z,7.40
2019-01-15T18:03:53.683Z,7.50
2019-01-15T18:06:23.807Z,7.50
2019-01-15T18:09:02.924Z,7.50
2019-01-15T18:11:32.965Z,7.40
2019-01-15T18:14:19.063Z,7.50
2019-01-15T18:16:51.970Z,7.50
2019-01-15T18:19:25.002Z,7.50
2019-01-15T18:22:09.833Z,7.50
2019-01-15T18:24:57.862Z,7.50
2019-01-15T18:27:45.657Z,7.50
2019-01-15T18:30:21.749Z,7.50
2019-01-15T18:33:07.811Z,7.50
2019-01-15T18:35:40.709Z,7.50
2019-01-15T18:38:13.632Z,7.50
2019-01-15T18:40:43.671Z,7.50
2019-01-15T18:43:19.714Z,7.50
2019-01-15T18:45:49.820Z,7.50
2019-01-15T18:48:35.939Z,7.50
2019-01-15T18:51:08.727Z,7.50
2019-01-15T18:53:56.923Z,7.50
2019-01-15T18:56:27.023Z,7.50
2019-01-15T18:59:13.354Z,7.50
2019-01-15T19:01:43.420Z,7.50
2019-01-15T19:04:15.067Z,7.50
2019-01-15T19:06:45.247Z,7.50
2019-01-15T19:09:21.060Z,7.50
2019-01-15T19:11:53.846Z,7.50
2019-01-15T19:14:27.044Z,7.60
2019-01-15T19:17:03.318Z,7.50
2019-01-15T19:19:28.921Z,7.60
2019-01-15T19:22:07.621Z,7.50
2019-01-15T19:24:52.546Z,7.50
2019-01-15T19:27:34.221Z,7.50
2019-01-15T19:30:13.187Z,7.50
2019-01-15T19:32:45.977Z,7.50
2019-01-15T19:35:21.629Z,7.50
2019-01-15T19:37:51.683Z,7.50
2019-01-15T19:40:21.785Z,7.50
2019-01-15T19:43:07.750Z,7.50
2019-01-15T19:45:40.891Z,7.50
2019-01-15T19:48:13.610Z,7.50
2019-01-15T19:50:46.603Z,7.50
2019-01-15T19:53:26.289Z,7.50
2019-01-15T19:56:05.215Z,7.50
2019-01-15T19:58:51.303Z,7.50
2019-01-15T20:01:33.381Z,7.40
2019-01-15T20:04:18.362Z,7.50
2019-01-15T20:06:48.524Z,7.40
2019-01-15T20:09:24.389Z,7.40
2019-01-15T20:12:03.252Z,7.40
2019-01-15T20:14:36.284Z,7.40
2019-01-15T20:17:25.064Z,7.40
2019-01-15T20:20:00.834Z,7.40
2019-01-15T20:22:47.262Z,7.40
2019-01-15T20:25:33.303Z,7.40
2019-01-15T20:28:03.390Z,7.40
2019-01-15T20:30:36.583Z,7.30
2019-01-15T20:33:09.246Z,7.30
2019-01-15T20:35:42.351Z,7.30
2019-01-15T20:38:12.421Z,7.30
2019-01-15T20:40:58.453Z,7.30
2019-01-15T20:43:28.573Z,7.30
2019-01-15T20:46:14.643Z,7.30
2019-01-15T20:48:44.691Z,7.30
2019-01-15T20:51:26.737Z,7.30
2019-01-15T20:54:11.708Z,7.30
2019-01-15T20:56:44.845Z,7.20
2019-01-15T20:59:17.365Z,7.20
2019-01-15T21:01:53.476Z,7.10
2019-01-15T21:04:26.207Z,7.20
2019-01-15T21:07:02.067Z,7.10
2019-01-15T21:09:35.096Z,7.10
2019-01-15T21:12:21.821Z,7.10
2019-01-15T21:14:54.881Z,7.10
2019-01-15T21:17:33.725Z,7.00
2019-01-15T21:20:06.709Z,7.00
2019-01-15T21:22:42.493Z,7.00
2019-01-15T21:25:15.561Z,7.00
2019-01-15T21:27:51.660Z,6.90
2019-01-15T21:30:33.519Z,6.80
2019-01-15T21:33:12.352Z,6.90
2019-01-15T21:35:58.655Z,6.90
2019-01-15T21:38:28.737Z,6.90
2019-01-15T21:41:01.537Z,6.90
2019-01-15T21:43:47.373Z,6.90
2019-01-15T21:46:17.452Z,6.90
2019-01-15T21:48:47.537Z,6.90
2019-01-15T21:51:29.407Z,6.90
2019-01-15T21:54:15.749Z,7.00
2019-01-15T21:56:48.377Z,7.00
2019-01-15T21:59:27.027Z,7.00
2019-01-15T22:01:59.919Z,7.00
2019-01-15T22:04:35.681Z,7.00
2019-01-15T22:07:05.825Z,7.00
2019-01-15T22:09:51.827Z,7.00
2019-01-15T22:12:22.580Z,7.00
2019-01-15T22:14:55.145Z,7.00
2019-01-15T22:17:47.343Z,7.10
2019-01-15T22:20:21.485Z,7.10
2019-01-15T22:23:03.657Z,7.10
2019-01-15T22:25:45.764Z,7.10
2019-01-15T22:28:18.306Z,7.10
2019-01-15T22:30:59.984Z,7.10
2019-01-15T22:33:30.041Z,7.00
2019-01-15T22:36:02.929Z,7.00
2019-01-15T22:38:50.952Z,7.10
2019-01-15T22:41:36.170Z,7.00
2019-01-15T22:44:21.296Z,7.10
2019-01-15T22:47:07.372Z,7.10
2019-01-15T22:49:49.489Z,7.10
2019-01-15T22:52:19.565Z,7.10
2019-01-15T22:55:04.430Z,7.10
2019-01-15T22:57:37.383Z,7.10
2019-01-15T23:00:16.537Z,7.10
2019-01-15T23:02:52.813Z,7.10
2019-01-15T23:05:28.393Z,7.10
2019-01-15T23:08:13.333Z,7.10
2019-01-15T23:10:43.496Z,7.10
2019-01-15T23:13:31.391Z,7.10
2019-01-15T23:16:01.436Z,7.10
2019-01-15T23:18:31.516Z,7.10
2019-01-15T23:21:07.280Z,7.10
2019-01-15T23:23:39.812Z,7.10
2019-01-15T23:26:18.731Z,7.10
2019-01-15T23:28:51.496Z,7.10
2019-01-15T23:31:21.617Z,7.10
2019-01-15T23:33:57.841Z,7.10
2019-01-15T23:36:43.973Z,7.10
2019-01-15T23:39:22.735Z,7.10
2019-01-15T23:42:04.523Z,7.10
2019-01-15T23:44:34.577Z,7.20
2019-01-15T23:47:04.644Z,7.20
2019-01-15T23:49:34.942Z,7.10
2019-01-15T23:52:22.948Z,7.20
2019-01-15T23:54:53.007Z,7.20
2019-01-15T23:57:35.106Z,7.10
